createdAt,value
2022-10-09T00:00:11.925Z,100918.81
2022-10-09T00:00:43.449Z,100922.38
2022-10-09T00:01:14.890Z,100917.16
2022-10-09T00:01:46.294Z,100918.53
2022-10-09T00:02:17.788Z,100923.72
2022-10-09T00:02:49.428Z,100928.66
2022-10-09T00:03:21.146Z,100926.19
2022-10-09T00:03:52.701Z,100921.28
2022-10-09T00:04:24.119Z,100923.72
2022-10-09T00:04:55.606Z,100920.72
2022-10-09T00:05:27.169Z,100923.72
2022-10-09T00:05:58.662Z,100925.63
2022-10-09T00:06:30.107Z,100924.00
2022-10-09T00:07:01.542Z,100924.53
2022-10-09T00:07:33.009Z,100919.63
2022-10-09T00:08:04.495Z,100932.19
2022-10-09T00:08:35.873Z,100927.00
2022-10-09T00:09:07.624Z,100922.63
2022-10-09T00:09:39.046Z,100927.81
2022-10-09T00:10:10.478Z,100929.19
2022-10-09T00:10:41.968Z,100925.38
2022-10-09T00:11:13.410Z,100929.47
2022-10-09T00:11:44.889Z,100930.81
2022-10-09T00:12:16.316Z,100939.28
2022-10-09T00:12:47.980Z,100935.19
2022-10-09T00:13:19.634Z,100936.56
2022-10-09T00:13:51.216Z,100928.09
2022-10-09T00:14:22.984Z,100937.91
2022-10-09T00:14:54.399Z,100929.19
2022-10-09T00:15:25.850Z,100931.91
2022-10-09T00:15:57.288Z,100931.91
2022-10-09T00:16:28.899Z,100931.91
2022-10-09T00:17:00.374Z,100935.47
2022-10-09T00:17:31.847Z,100933.81
2022-10-09T00:18:03.397Z,100938.19
2022-10-09T00:18:34.745Z,100935.47
2022-10-09T00:19:06.519Z,100937.09
2022-10-09T00:19:38.169Z,100944.75
2022-10-09T00:20:09.571Z,100939.56
2022-10-09T00:21:22.143Z,100938.75
2022-10-09T00:22:32.926Z,100934.09
2022-10-09T00:23:35.203Z,100937.66
2022-10-09T00:24:36.247Z,100940.09
2022-10-09T00:25:30.218Z,100942.28
2022-10-09T00:26:20.004Z,100948.56
2022-10-09T00:27:16.676Z,100941.72
2022-10-09T00:28:14.048Z,100946.38
2022-10-09T00:31:11.187Z,100938.72
2022-10-09T00:32:07.332Z,100934.09
2022-10-09T00:32:54.922Z,100944.19
2022-10-09T00:33:44.426Z,100944.75
2022-10-09T00:34:32.556Z,100948.28
2022-10-09T00:35:33.500Z,100948.03
2022-10-09T00:36:17.198Z,100955.66
2022-10-09T00:37:06.835Z,100953.75
2022-10-09T00:37:58.918Z,100949.66
2022-10-09T00:38:57.954Z,100945.00
2022-10-09T00:40:04.956Z,100950.75
2022-10-09T00:41:01.355Z,100953.47
2022-10-09T00:43:18.793Z,100939.00
2022-10-09T00:44:13.870Z,100950.75
2022-10-09T00:44:56.777Z,100943.38
2022-10-09T00:45:43.734Z,100948.81
2022-10-09T00:47:24.514Z,100944.75
2022-10-09T00:48:26.297Z,100941.19
2022-10-09T00:49:30.223Z,100942.28
2022-10-09T00:50:33.190Z,100946.09
2022-10-09T00:51:22.093Z,100946.94
2022-10-09T00:52:08.722Z,100940.09
2022-10-09T00:53:51.050Z,100947.75
2022-10-09T00:54:49.992Z,100940.38
2022-10-09T00:56:25.668Z,100947.19
2022-10-09T00:57:11.977Z,100942.53
2022-10-09T00:59:58.026Z,100941.72
2022-10-09T01:02:12.541Z,100948.81
2022-10-09T01:03:04.092Z,100946.66
2022-10-09T01:04:00.928Z,100945.53
2022-10-09T01:05:00.780Z,100946.63
2022-10-09T01:06:12.048Z,100944.75
2022-10-09T01:07:20.700Z,100945.28
2022-10-09T01:08:09.066Z,100940.91
2022-10-09T01:09:01.472Z,100941.44
2022-10-09T01:09:56.216Z,100942.28
2022-10-09T01:12:09.388Z,100943.91
2022-10-09T01:13:02.933Z,100941.47
2022-10-09T01:13:53.193Z,100945.00
2022-10-09T01:17:32.991Z,100946.09
2022-10-09T01:18:39.819Z,100944.47
2022-10-09T01:19:32.313Z,100932.72
2022-10-09T01:20:25.317Z,100938.19
2022-10-09T01:23:47.945Z,100928.91
2022-10-09T01:26:32.248Z,100930.53
2022-10-09T01:27:51.586Z,100928.91
2022-10-09T01:29:00.722Z,100929.19
2022-10-09T01:29:47.149Z,100926.97
2022-10-09T01:30:40.373Z,100929.44
2022-10-09T01:31:38.644Z,100935.44
2022-10-09T01:33:37.568Z,100932.72
2022-10-09T01:34:49.587Z,100930.25
2022-10-09T01:35:41.261Z,100920.69
2022-10-09T01:37:01.744Z,100924.25
2022-10-09T01:37:58.635Z,100922.88
2022-10-09T01:39:17.753Z,100923.72
2022-10-09T01:40:12.921Z,100922.59
2022-10-09T01:42:12.620Z,100916.31
2022-10-09T01:44:08.531Z,100917.16
2022-10-09T01:46:02.063Z,100916.63
2022-10-09T01:46:46.012Z,100919.63
2022-10-09T01:47:32.458Z,100922.34
2022-10-09T01:48:19.194Z,100921.53
2022-10-09T01:49:04.826Z,100917.97
2022-10-09T01:50:59.041Z,100915.53
2022-10-09T01:52:45.173Z,100915.81
2022-10-09T01:53:36.256Z,100917.97
2022-10-09T01:57:31.055Z,100919.34
2022-10-09T01:59:27.129Z,100918.25
2022-10-09T02:00:26.831Z,100911.97
2022-10-09T02:01:17.656Z,100914.72
2022-10-09T02:02:08.496Z,100913.91
2022-10-09T02:03:03.406Z,100912.78
2022-10-09T02:04:01.007Z,100914.72
2022-10-09T02:04:53.921Z,100908.44
2022-10-09T02:05:51.140Z,100917.16
2022-10-09T02:06:43.676Z,100913.88
2022-10-09T02:07:31.942Z,100910.59
2022-10-09T02:08:21.908Z,100909.50
2022-10-09T02:09:12.360Z,100909.25
2022-10-09T02:10:02.228Z,100905.69
2022-10-09T02:10:45.255Z,100904.06
2022-10-09T02:11:34.326Z,100906.25
2022-10-09T02:12:25.598Z,100906.78
2022-10-09T02:14:18.747Z,100912.50
2022-10-09T02:16:12.172Z,100904.59
2022-10-09T02:17:05.107Z,100911.44
2022-10-09T02:18:04.185Z,100899.41
2022-10-09T02:19:51.929Z,100910.63
2022-10-09T02:20:23.189Z,100903.25
2022-10-09T02:20:54.443Z,100910.34
2022-10-09T02:21:25.839Z,100908.16
2022-10-09T02:21:57.337Z,100906.78
2022-10-09T02:22:28.836Z,100907.34
2022-10-09T02:23:00.297Z,100904.88
2022-10-09T02:23:31.792Z,100908.97
2022-10-09T02:24:03.506Z,100905.16
2022-10-09T02:24:34.975Z,100899.69
2022-10-09T02:25:06.477Z,100907.06
2022-10-09T02:25:37.888Z,100895.59
2022-10-09T02:26:09.329Z,100901.88
2022-10-09T02:26:40.767Z,100907.63
2022-10-09T02:27:12.212Z,100899.69
2022-10-09T02:27:43.680Z,100904.06
2022-10-09T02:28:15.168Z,100902.69
2022-10-09T02:28:46.689Z,100901.88
2022-10-09T02:29:18.156Z,100894.22
2022-10-09T02:29:52.108Z,100905.44
2022-10-09T02:30:23.567Z,100901.88
2022-10-09T02:30:54.995Z,100896.41
2022-10-09T02:31:26.527Z,100900.22
2022-10-09T02:31:58.073Z,100896.97
2022-10-09T02:32:29.546Z,100898.31
2022-10-09T02:33:01.016Z,100905.69
2022-10-09T02:33:32.441Z,100899.97
2022-10-09T02:34:03.896Z,100894.78
2022-10-09T02:34:35.289Z,100901.06
2022-10-09T02:35:06.803Z,100904.31
2022-10-09T02:35:38.229Z,100898.03
2022-10-09T02:36:09.835Z,100893.13
2022-10-09T02:36:41.209Z,100893.69
2022-10-09T02:37:12.664Z,100891.47
2022-10-09T02:37:44.145Z,100894.22
2022-10-09T02:38:15.558Z,100894.78
2022-10-09T02:38:46.993Z,100895.31
2022-10-09T02:39:18.461Z,100891.78
2022-10-09T02:39:49.902Z,100891.22
2022-10-09T02:40:21.379Z,100890.94
2022-10-09T02:40:52.820Z,100888.75
2022-10-09T02:41:24.316Z,100890.41
2022-10-09T02:41:55.732Z,100891.50
2022-10-09T02:42:27.112Z,100897.50
2022-10-09T02:42:58.637Z,100893.97
2022-10-09T02:43:30.135Z,100885.50
2022-10-09T02:44:01.677Z,100895.59
2022-10-09T02:44:33.084Z,100896.16
2022-10-09T02:45:04.620Z,100892.03
2022-10-09T02:45:36.086Z,100891.22
2022-10-09T02:46:07.627Z,100892.59
2022-10-09T02:46:39.121Z,100896.13
2022-10-09T02:47:10.640Z,100894.75
2022-10-09T02:47:42.088Z,100892.59
2022-10-09T02:48:13.565Z,100895.31
2022-10-09T02:48:45.034Z,100889.88
2022-10-09T02:49:16.571Z,100883.59
2022-10-09T02:49:47.941Z,100887.13
2022-10-09T02:50:19.400Z,100886.59
2022-10-09T02:50:50.900Z,100890.13
2022-10-09T02:51:22.300Z,100888.75
2022-10-09T02:51:53.767Z,100884.13
2022-10-09T02:52:25.223Z,100888.50
2022-10-09T02:52:56.694Z,100884.94
2022-10-09T02:53:28.236Z,100888.47
2022-10-09T02:53:59.689Z,100892.59
2022-10-09T02:54:31.129Z,100885.47
2022-10-09T02:55:02.606Z,100886.03
2022-10-09T02:55:34.082Z,100889.84
2022-10-09T02:56:05.509Z,100895.31
2022-10-09T02:56:39.170Z,100882.75
2022-10-09T02:57:10.741Z,100895.03
2022-10-09T02:57:42.156Z,100888.50
2022-10-09T02:58:13.594Z,100892.59
2022-10-09T02:58:45.055Z,100881.94
2022-10-09T02:59:16.490Z,100886.59
2022-10-09T02:59:47.863Z,100891.78
2022-10-09T03:00:19.453Z,100886.84
2022-10-09T03:00:50.902Z,100885.22
2022-10-09T03:01:22.376Z,100883.59
2022-10-09T03:01:56.416Z,100881.94
2022-10-09T03:02:28.016Z,100884.69
2022-10-09T03:02:59.655Z,100885.50
2022-10-09T03:03:31.350Z,100886.03
2022-10-09T03:04:02.856Z,100879.75
2022-10-09T03:04:34.304Z,100886.84
2022-10-09T03:05:05.680Z,100884.94
2022-10-09T03:05:37.155Z,100882.22
2022-10-09T03:06:08.720Z,100886.03
2022-10-09T03:06:40.124Z,100878.41
2022-10-09T03:07:11.563Z,100886.59
2022-10-09T03:07:43.015Z,100879.50
2022-10-09T03:08:14.415Z,100884.66
2022-10-09T03:08:45.864Z,100883.31
2022-10-09T03:09:17.299Z,100879.75
2022-10-09T03:09:48.795Z,100886.03
2022-10-09T03:10:20.296Z,100884.41
2022-10-09T03:10:51.756Z,100885.50
2022-10-09T03:11:23.192Z,100880.56
2022-10-09T03:11:54.597Z,100881.09
2022-10-09T03:12:26.075Z,100881.09
2022-10-09T03:12:57.492Z,100879.75
2022-10-09T03:13:28.966Z,100888.75
2022-10-09T03:14:00.395Z,100880.31
2022-10-09T03:14:31.851Z,100877.84
2022-10-09T03:15:03.219Z,100879.75
2022-10-09T03:15:34.712Z,100880.84
2022-10-09T03:16:06.380Z,100879.22
2022-10-09T03:16:37.851Z,100879.19
2022-10-09T03:17:09.321Z,100879.22
2022-10-09T03:17:40.767Z,100880.84
2022-10-09T03:18:12.271Z,100874.28
2022-10-09T03:18:43.675Z,100888.22
2022-10-09T03:19:15.159Z,100875.66
2022-10-09T03:19:46.666Z,100874.03
2022-10-09T03:20:18.091Z,100871.28
2022-10-09T03:20:49.563Z,100880.03
2022-10-09T03:21:21.036Z,100880.28
2022-10-09T03:21:52.516Z,100878.38
2022-10-09T03:22:23.972Z,100881.94
2022-10-09T03:22:55.372Z,100875.94
2022-10-09T03:23:26.789Z,100879.22
2022-10-09T03:23:58.200Z,100887.94
2022-10-09T03:24:29.632Z,100883.03
2022-10-09T03:25:01.039Z,100885.50
2022-10-09T03:25:32.455Z,100880.03
2022-10-09T03:26:03.931Z,100879.50
2022-10-09T03:26:35.373Z,100881.13
2022-10-09T03:27:06.857Z,100877.81
2022-10-09T03:27:38.316Z,100874.28
2022-10-09T03:28:09.813Z,100877.84
2022-10-09T03:28:41.391Z,100877.28
2022-10-09T03:29:12.949Z,100881.13
2022-10-09T03:29:44.361Z,100874.56
2022-10-09T03:30:15.829Z,100877.84
2022-10-09T03:30:47.343Z,100877.81
2022-10-09T03:31:46.491Z,100876.75
2022-10-09T03:32:10.388Z,100876.19
2022-10-09T03:32:41.999Z,100886.31
2022-10-09T03:33:13.389Z,100877.28
2022-10-09T03:33:44.874Z,100886.84
2022-10-09T03:34:16.350Z,100877.84
2022-10-09T03:34:47.776Z,100875.09
2022-10-09T03:35:19.228Z,100881.13
2022-10-09T03:35:50.665Z,100880.84
2022-10-09T03:36:22.145Z,100886.03
2022-10-09T03:36:53.612Z,100880.56
2022-10-09T03:37:25.042Z,100890.13
2022-10-09T03:37:56.477Z,100874.28
2022-10-09T03:38:27.897Z,100881.38
2022-10-09T03:38:59.283Z,100875.94
2022-10-09T03:39:30.714Z,100875.94
2022-10-09T03:40:02.210Z,100882.22
2022-10-09T03:40:33.846Z,100874.28
2022-10-09T03:41:05.341Z,100877.81
2022-10-09T03:41:36.762Z,100871.81
2022-10-09T03:42:08.200Z,100877.84
2022-10-09T03:42:39.625Z,100882.47
2022-10-09T03:43:11.058Z,100874.00
2022-10-09T03:43:42.517Z,100885.75
2022-10-09T03:44:13.947Z,100886.03
2022-10-09T03:44:45.463Z,100881.94
2022-10-09T03:45:16.847Z,100882.22
2022-10-09T03:45:48.276Z,100878.09
2022-10-09T03:46:19.913Z,100878.38
2022-10-09T03:46:51.483Z,100885.75
2022-10-09T03:47:23.024Z,100882.75
2022-10-09T03:47:54.475Z,100886.56
2022-10-09T03:48:25.952Z,100878.66
2022-10-09T03:48:57.403Z,100875.66
2022-10-09T03:49:28.894Z,100878.38
2022-10-09T03:50:00.391Z,100881.94
2022-10-09T03:50:31.882Z,100881.94
2022-10-09T03:51:03.387Z,100883.56
2022-10-09T03:51:34.861Z,100881.09
2022-10-09T03:52:06.238Z,100884.13
2022-10-09T03:52:37.716Z,100880.28
2022-10-09T03:53:09.214Z,100880.81
2022-10-09T03:53:40.640Z,100877.81
2022-10-09T03:54:12.082Z,100882.75
2022-10-09T03:54:43.512Z,100876.19
2022-10-09T03:55:17.540Z,100880.56
2022-10-09T03:55:48.933Z,100877.56
2022-10-09T03:56:20.513Z,100888.22
2022-10-09T03:56:51.994Z,100885.47
2022-10-09T03:57:23.469Z,100882.75
2022-10-09T03:57:54.867Z,100883.28
2022-10-09T03:58:26.373Z,100877.00
2022-10-09T03:58:57.839Z,100888.72
2022-10-09T03:59:29.304Z,100878.38
2022-10-09T04:00:00.739Z,100879.72
2022-10-09T04:00:32.196Z,100876.72
2022-10-09T04:01:03.758Z,100879.47
2022-10-09T04:01:35.345Z,100875.63
2022-10-09T04:02:06.808Z,100873.72
2022-10-09T04:02:38.361Z,100880.81
2022-10-09T04:03:09.818Z,100882.22
2022-10-09T04:03:41.246Z,100886.03
2022-10-09T04:04:12.661Z,100877.28
2022-10-09T04:04:44.169Z,100869.38
2022-10-09T04:05:15.623Z,100880.28
2022-10-09T04:05:47.078Z,100882.47
2022-10-09T04:06:18.496Z,100877.81
2022-10-09T04:06:49.934Z,100883.28
2022-10-09T04:07:21.387Z,100884.66
2022-10-09T04:07:52.833Z,100880.28
2022-10-09T04:08:24.263Z,100880.84
2022-10-09T04:08:55.693Z,100885.22
2022-10-09T04:09:27.054Z,100878.09
2022-10-09T04:09:58.469Z,100882.75
2022-10-09T04:10:29.966Z,100886.56
2022-10-09T04:11:01.396Z,100875.94
2022-10-09T04:11:32.811Z,100882.19
2022-10-09T04:12:04.349Z,100881.66
2022-10-09T04:12:35.787Z,100884.09
2022-10-09T04:13:07.183Z,100883.28
2022-10-09T04:13:38.645Z,100883.81
2022-10-09T04:14:10.089Z,100880.28
2022-10-09T04:14:41.499Z,100883.28
2022-10-09T04:15:12.962Z,100884.94
2022-10-09T04:15:44.355Z,100883.28
2022-10-09T04:16:15.804Z,100877.28
2022-10-09T04:16:47.342Z,100880.56
2022-10-09T04:17:18.907Z,100876.47
2022-10-09T04:17:50.392Z,100881.94
2022-10-09T04:18:21.872Z,100886.03
2022-10-09T04:18:53.417Z,100879.19
2022-10-09T04:19:27.535Z,100876.47
2022-10-09T04:19:59.252Z,100879.19
2022-10-09T04:20:30.729Z,100874.56
2022-10-09T04:21:02.206Z,100877.00
2022-10-09T04:21:33.979Z,100881.94
2022-10-09T04:22:05.586Z,100874.00
2022-10-09T04:22:37.011Z,100878.91
2022-10-09T04:23:08.498Z,100880.00
2022-10-09T04:23:39.901Z,100878.38
2022-10-09T04:24:11.364Z,100877.28
2022-10-09T04:24:42.825Z,100875.91
2022-10-09T04:25:14.300Z,100877.81
2022-10-09T04:25:45.847Z,100875.66
2022-10-09T04:26:17.254Z,100877.03
2022-10-09T04:26:48.810Z,100874.00
2022-10-09T04:27:20.264Z,100874.81
2022-10-09T04:27:51.668Z,100877.25
2022-10-09T04:28:23.126Z,100878.38
2022-10-09T04:28:54.558Z,100874.56
2022-10-09T04:29:25.958Z,100876.75
2022-10-09T04:29:57.408Z,100871.28
2022-10-09T04:30:28.842Z,100878.38
2022-10-09T04:31:00.319Z,100871.28
2022-10-09T04:31:31.801Z,100873.75
2022-10-09T04:32:03.298Z,100877.00
2022-10-09T04:32:34.824Z,100874.00
2022-10-09T04:33:09.157Z,100876.19
2022-10-09T04:33:44.123Z,100866.09
2022-10-09T04:34:15.617Z,100877.00
2022-10-09T04:34:47.054Z,100866.38
2022-10-09T04:35:18.480Z,100871.81
2022-10-09T04:35:49.934Z,100878.91
2022-10-09T04:36:21.368Z,100872.34
2022-10-09T04:36:52.792Z,100872.38
2022-10-09T04:37:24.219Z,100875.91
2022-10-09T04:37:55.650Z,100870.47
2022-10-09T04:38:27.058Z,100867.72
2022-10-09T04:38:58.569Z,100869.91
2022-10-09T04:39:30.011Z,100868.56
2022-10-09T04:40:01.512Z,100866.63
2022-10-09T04:40:35.238Z,100864.19
2022-10-09T04:41:06.651Z,100868.53
2022-10-09T04:41:38.638Z,100865.53
2022-10-09T04:42:10.098Z,100871.28
2022-10-09T04:42:41.572Z,100862.53
2022-10-09T04:43:12.985Z,100868.00
2022-10-09T04:43:44.404Z,100871.00
2022-10-09T04:44:15.808Z,100869.63
2022-10-09T04:44:47.287Z,100871.81
2022-10-09T04:45:18.780Z,100868.53
2022-10-09T04:45:50.257Z,100874.28
2022-10-09T04:46:21.996Z,100866.63
2022-10-09T04:46:53.468Z,100876.47
2022-10-09T04:47:24.907Z,100869.63
2022-10-09T04:47:56.346Z,100872.91
2022-10-09T04:48:27.787Z,100870.72
2022-10-09T04:48:59.208Z,100867.19
2022-10-09T04:49:30.672Z,100869.63
2022-10-09T04:50:02.450Z,100872.91
2022-10-09T04:50:33.986Z,100875.38
2022-10-09T04:51:05.469Z,100873.72
2022-10-09T04:51:36.940Z,100869.63
2022-10-09T04:52:08.461Z,100870.44
2022-10-09T04:52:39.897Z,100870.19
2022-10-09T04:53:11.333Z,100868.53
2022-10-09T04:53:42.777Z,100872.91
2022-10-09T04:54:14.284Z,100869.34
2022-10-09T04:54:45.689Z,100874.00
2022-10-09T04:55:17.138Z,100869.09
2022-10-09T04:55:48.589Z,100878.38
2022-10-09T04:56:20.042Z,100864.72
2022-10-09T04:56:51.491Z,100874.56
2022-10-09T04:57:23.016Z,100874.56
2022-10-09T04:57:54.715Z,100874.56
2022-10-09T04:58:26.147Z,100872.63
2022-10-09T04:58:57.598Z,100869.34
2022-10-09T04:59:29.046Z,100872.09
2022-10-09T05:00:00.465Z,100872.34
2022-10-09T05:00:31.915Z,100868.00
2022-10-09T05:01:03.356Z,100866.34
2022-10-09T05:01:38.267Z,100872.34
2022-10-09T05:02:10.214Z,100867.44
2022-10-09T05:02:41.847Z,100869.91
2022-10-09T05:03:13.299Z,100877.28
2022-10-09T05:03:44.773Z,100873.72
2022-10-09T05:04:16.196Z,100873.72
2022-10-09T05:04:47.683Z,100877.53
2022-10-09T05:05:19.136Z,100871.00
2022-10-09T05:05:50.584Z,100879.19
2022-10-09T05:06:22.046Z,100868.81
2022-10-09T05:06:53.463Z,100872.91
2022-10-09T05:07:24.903Z,100867.72
2022-10-09T05:07:56.376Z,100874.25
2022-10-09T05:08:27.828Z,100870.72
2022-10-09T05:08:59.218Z,100875.09
2022-10-09T05:09:30.609Z,100863.91
2022-10-09T05:10:02.076Z,100871.53
2022-10-09T05:10:33.632Z,100865.53
2022-10-09T05:11:05.069Z,100862.53
2022-10-09T05:11:41.726Z,100866.34
2022-10-09T05:12:14.027Z,100866.91
2022-10-09T05:12:45.617Z,100860.09
2022-10-09T05:13:17.379Z,100865.81
2022-10-09T05:13:48.850Z,100865.81
2022-10-09T05:14:20.357Z,100864.16
2022-10-09T05:14:51.811Z,100863.06
2022-10-09T05:15:23.283Z,100863.63
2022-10-09T05:15:54.712Z,100862.78
2022-10-09T05:16:26.192Z,100861.97
2022-10-09T05:17:14.706Z,100861.97
2022-10-09T05:17:46.751Z,100866.88
2022-10-09T05:18:18.430Z,100865.25
2022-10-09T05:18:50.108Z,100861.97
2022-10-09T05:19:21.614Z,100859.25
2022-10-09T05:19:53.013Z,100863.91
2022-10-09T05:20:24.469Z,100863.09
2022-10-09T05:20:55.887Z,100856.78
2022-10-09T05:21:27.382Z,100858.44
2022-10-09T05:21:58.908Z,100864.72
2022-10-09T05:22:30.363Z,100861.16
2022-10-09T05:23:01.773Z,100852.97
2022-10-09T05:23:33.249Z,100865.53
2022-10-09T05:24:09.482Z,100859.53
2022-10-09T05:24:41.758Z,100862.53
2022-10-09T05:25:13.185Z,100865.00
2022-10-09T05:25:44.618Z,100861.16
2022-10-09T05:26:16.061Z,100863.63
2022-10-09T05:26:47.485Z,100863.63
2022-10-09T05:27:18.992Z,100864.72
2022-10-09T05:27:50.388Z,100863.34
2022-10-09T05:28:21.919Z,100860.34
2022-10-09T05:28:53.503Z,100863.34
2022-10-09T05:29:24.987Z,100859.53
2022-10-09T05:29:56.424Z,100862.81
2022-10-09T05:30:27.849Z,100864.44
2022-10-09T05:30:59.318Z,100862.25
2022-10-09T05:31:30.796Z,100863.09
2022-10-09T05:32:02.481Z,100862.00
2022-10-09T05:32:33.959Z,100863.63
2022-10-09T05:33:05.404Z,100863.34
2022-10-09T05:33:36.878Z,100858.72
2022-10-09T05:34:08.404Z,100862.25
2022-10-09T05:34:39.832Z,100860.09
2022-10-09T05:35:11.274Z,100862.53
2022-10-09T05:35:42.807Z,100865.53
2022-10-09T05:36:14.277Z,100860.63
2022-10-09T05:36:45.693Z,100864.72
2022-10-09T05:37:17.183Z,100865.53
2022-10-09T05:37:48.648Z,100865.53
2022-10-09T05:38:20.080Z,100865.53
2022-10-09T05:38:51.529Z,100862.81
2022-10-09T05:39:22.986Z,100862.81
2022-10-09T05:39:54.447Z,100859.81
2022-10-09T05:40:29.089Z,100861.41
2022-10-09T05:41:00.810Z,100861.16
2022-10-09T05:41:32.192Z,100863.63
2022-10-09T05:42:03.629Z,100855.97
2022-10-09T05:42:35.055Z,100861.44
2022-10-09T05:43:06.478Z,100864.72
2022-10-09T05:43:38.032Z,100869.06
2022-10-09T05:44:09.530Z,100860.63
2022-10-09T05:44:41.027Z,100863.63
2022-10-09T05:45:12.442Z,100862.25
2022-10-09T05:45:43.939Z,100859.25
2022-10-09T05:46:15.496Z,100856.53
2022-10-09T05:46:47.008Z,100859.25
2022-10-09T05:47:18.476Z,100860.06
2022-10-09T05:47:49.974Z,100854.91
2022-10-09T05:48:21.395Z,100862.25
2022-10-09T05:48:52.877Z,100863.06
2022-10-09T05:49:24.285Z,100859.25
2022-10-09T05:49:55.773Z,100861.44
2022-10-09T05:50:27.217Z,100863.91
2022-10-09T05:50:58.648Z,100855.97
2022-10-09T05:51:30.167Z,100859.25
2022-10-09T05:52:01.547Z,100860.88
2022-10-09T05:52:32.993Z,100864.44
2022-10-09T05:53:04.478Z,100855.97
2022-10-09T05:53:35.854Z,100861.16
2022-10-09T05:54:07.275Z,100858.72
2022-10-09T05:54:38.750Z,100865.53
2022-10-09T05:55:10.251Z,100849.97
2022-10-09T05:55:41.672Z,100856.25
2022-10-09T05:56:13.212Z,100858.16
2022-10-09T05:56:44.778Z,100860.06
2022-10-09T05:57:16.216Z,100863.34
2022-10-09T05:57:47.661Z,100858.44
2022-10-09T05:58:19.086Z,100857.63
2022-10-09T05:58:50.563Z,100859.81
2022-10-09T05:59:22.063Z,100858.44
2022-10-09T05:59:53.512Z,100860.34
2022-10-09T06:00:25.003Z,100856.78
2022-10-09T06:00:56.424Z,100861.44
2022-10-09T06:01:27.966Z,100849.16
2022-10-09T06:01:59.455Z,100857.59
2022-10-09T06:02:30.959Z,100851.88
2022-10-09T06:03:02.488Z,100848.06
2022-10-09T06:03:33.929Z,100855.69
2022-10-09T06:04:05.385Z,100848.34
2022-10-09T06:04:36.798Z,100853.25
2022-10-09T06:05:08.293Z,100853.50
2022-10-09T06:05:39.710Z,100858.16
2022-10-09T06:06:11.122Z,100857.34
2022-10-09T06:06:42.535Z,100856.78
2022-10-09T06:07:13.949Z,100857.34
2022-10-09T06:07:45.386Z,100856.78
2022-10-09T06:08:16.865Z,100850.78
2022-10-09T06:08:48.274Z,100853.50
2022-10-09T06:09:19.698Z,100855.16
2022-10-09T06:09:51.141Z,100850.50
2022-10-09T06:10:22.649Z,100856.53
2022-10-09T06:10:54.155Z,100853.78
2022-10-09T06:11:25.608Z,100855.16
2022-10-09T06:11:57.059Z,100851.59
2022-10-09T06:12:28.468Z,100862.25
2022-10-09T06:12:59.907Z,100854.34
2022-10-09T06:13:31.342Z,100859.25
2022-10-09T06:14:02.774Z,100861.16
2022-10-09T06:14:34.233Z,100856.78
2022-10-09T06:15:05.674Z,100855.69
2022-10-09T06:15:37.279Z,100859.25
2022-10-09T06:16:08.741Z,100859.22
2022-10-09T06:16:40.201Z,100859.50
2022-10-09T06:17:11.665Z,100859.22
2022-10-09T06:17:43.127Z,100861.41
2022-10-09T06:18:14.543Z,100858.66
2022-10-09T06:18:49.078Z,100859.78
2022-10-09T06:19:21.098Z,100863.59
2022-10-09T06:19:52.518Z,100857.59
2022-10-09T06:20:23.987Z,100863.63
2022-10-09T06:20:55.597Z,100858.16
2022-10-09T06:22:15.296Z,100860.63
2022-10-09T06:23:09.435Z,100864.97
2022-10-09T06:23:46.964Z,100864.72
2022-10-09T06:24:27.845Z,100861.44
2022-10-09T06:25:03.724Z,100858.44
2022-10-09T06:25:39.836Z,100860.91
2022-10-09T06:26:15.550Z,100856.53
2022-10-09T06:26:51.344Z,100858.16
2022-10-09T06:27:27.313Z,100851.34
2022-10-09T06:28:03.178Z,100863.63
2022-10-09T06:28:39.322Z,100861.97
2022-10-09T06:29:15.692Z,100858.97
2022-10-09T06:29:51.647Z,100858.44
2022-10-09T06:30:27.549Z,100860.63
2022-10-09T06:31:04.493Z,100865.53
2022-10-09T06:31:43.101Z,100861.69
2022-10-09T06:32:26.823Z,100857.34
2022-10-09T06:33:06.540Z,100863.91
2022-10-09T06:33:46.654Z,100856.25
2022-10-09T06:34:23.175Z,100851.59
2022-10-09T06:34:59.208Z,100858.97
2022-10-09T06:35:35.697Z,100866.09
2022-10-09T06:36:11.435Z,100860.63
2022-10-09T06:36:47.273Z,100869.09
2022-10-09T06:37:23.619Z,100869.34
2022-10-09T06:38:00.232Z,100874.00
2022-10-09T06:38:36.416Z,100870.72
2022-10-09T06:39:13.357Z,100867.97
2022-10-09T06:39:49.551Z,100867.44
2022-10-09T06:40:25.596Z,100871.25
2022-10-09T06:41:01.361Z,100871.00
2022-10-09T06:41:37.211Z,100871.28
2022-10-09T06:42:12.739Z,100870.44
2022-10-09T06:42:51.208Z,100868.25
2022-10-09T06:43:30.635Z,100864.97
2022-10-09T06:44:15.343Z,100862.78
2022-10-09T06:44:54.120Z,100864.97
2022-10-09T06:45:35.901Z,100869.09
2022-10-09T06:46:13.263Z,100871.25
2022-10-09T06:46:48.944Z,100871.25
2022-10-09T06:47:24.372Z,100870.97
2022-10-09T06:48:00.753Z,100869.88
2022-10-09T06:48:37.368Z,100873.44
2022-10-09T06:49:13.313Z,100881.63
2022-10-09T06:49:49.624Z,100875.06
2022-10-09T06:50:25.499Z,100872.06
2022-10-09T06:51:01.554Z,100872.63
2022-10-09T06:51:38.192Z,100881.09
2022-10-09T06:52:13.974Z,100874.78
2022-10-09T06:52:50.345Z,100877.81
2022-10-09T06:53:26.304Z,100873.16
2022-10-09T06:54:02.775Z,100872.34
2022-10-09T06:54:39.058Z,100878.34
2022-10-09T06:55:15.209Z,100882.97
2022-10-09T06:55:53.093Z,100884.06
2022-10-09T06:56:33.482Z,100881.34
2022-10-09T06:57:09.153Z,100877.00
2022-10-09T06:57:45.396Z,100877.81
2022-10-09T06:58:21.527Z,100877.53
2022-10-09T06:58:58.194Z,100879.16
2022-10-09T06:59:34.222Z,100877.81
2022-10-09T07:00:10.571Z,100882.97
2022-10-09T07:00:47.410Z,100880.81
2022-10-09T07:01:23.321Z,100874.53
2022-10-09T07:01:58.977Z,100883.81
2022-10-09T07:02:35.053Z,100875.34
2022-10-09T07:03:11.779Z,100877.25
2022-10-09T07:03:47.891Z,100874.78
2022-10-09T07:04:24.182Z,100882.97
2022-10-09T07:05:00.365Z,100880.81
2022-10-09T07:05:37.246Z,100883.25
2022-10-09T07:06:12.583Z,100880.53
2022-10-09T07:06:50.259Z,100882.44
2022-10-09T07:07:26.838Z,100886.53
2022-10-09T07:08:03.188Z,100881.09
2022-10-09T07:08:39.443Z,100882.97
2022-10-09T07:09:15.828Z,100883.53
2022-10-09T07:09:51.903Z,100883.25
2022-10-09T07:10:27.867Z,100891.44
2022-10-09T07:11:04.278Z,100878.63
2022-10-09T07:11:40.280Z,100884.91
2022-10-09T07:12:15.755Z,100883.81
2022-10-09T07:12:52.028Z,100886.53
2022-10-09T07:13:28.644Z,100887.09
2022-10-09T07:14:04.981Z,100884.91
2022-10-09T07:14:41.547Z,100886.81
2022-10-09T07:15:18.019Z,100884.91
2022-10-09T07:15:53.969Z,100885.47
2022-10-09T07:16:31.678Z,100888.19
2022-10-09T07:17:09.125Z,100893.38
2022-10-09T07:17:47.447Z,100890.09
2022-10-09T07:18:28.662Z,100888.19